sensor_id;sensor_type;location;lat;lon;timestamp;P1;durP1;ratioP1;P2;durP2;ratioP2
50555;SDS011;36508;52.512;13.450;2023-02-01T00:01:06;16.67;;;4.50;;
50555;SDS011;36508;52.512;13.450;2023-02-01T00:03:35;16.50;;;7.70;;
50555;SDS011;36508;52.512;13.450;2023-02-01T00:06:06;23.73;;;6.63;;
50555;SDS011;36508;52.512;13.450;2023-02-01T00:08:32;16.33;;;5.30;;
50555;SDS011;36508;52.512;13.450;2023-02-01T00:11:01;13.80;;;4.13;;
50555;SDS011;36508;52.512;13.450;2023-02-01T00:13:37;17.63;;;5.83;;
50555;SDS011;36508;52.512;13.450;2023-02-01T00:18:34;17.43;;;3.90;;
50555;SDS011;36508;52.512;13.450;2023-02-01T00:21:00;18.90;;;4.53;;
50555;SDS011;36508;52.512;13.450;2023-02-01T00:23:27;15.37;;;3.40;;
50555;SDS011;36508;52.512;13.450;2023-02-01T00:25:59;13.27;;;3.60;;
50555;SDS011;36508;52.512;13.450;2023-02-01T00:28:32;17.17;;;3.30;;
50555;SDS011;36508;52.512;13.450;2023-02-01T00:31:05;12.13;;;3.33;;
50555;SDS011;36508;52.512;13.450;2023-02-01T00:33:39;17.43;;;4.37;;
50555;SDS011;36508;52.512;13.450;2023-02-01T00:36:11;10.07;;;3.77;;
50555;SDS011;36508;52.512;13.450;2023-02-01T00:38:37;12.83;;;4.47;;
50555;SDS011;36508;52.512;13.450;2023-02-01T00:41:11;11.07;;;3.30;;
50555;SDS011;36508;52.512;13.450;2023-02-01T00:43:38;12.63;;;4.30;;
50555;SDS011;36508;52.512;13.450;2023-02-01T00:46:05;13.47;;;3.60;;
50555;SDS011;36508;52.512;13.450;2023-02-01T00:48:30;10.73;;;3.27;;
50555;SDS011;36508;52.512;13.450;2023-02-01T00:51:04;12.00;;;3.90;;
50555;SDS011;36508;52.512;13.450;2023-02-01T00:53:37;20.33;;;7.07;;
50555;SDS011;36508;52.512;13.450;2023-02-01T00:56:07;5.57;;;2.60;;
50555;SDS011;36508;52.512;13.450;2023-02-01T00:58:38;12.60;;;4.87;;
50555;SDS011;36508;52.512;13.450;2023-02-01T01:03:42;19.87;;;3.40;;
50555;SDS011;36508;52.512;13.450;2023-02-01T01:06:18;12.30;;;3.90;;
50555;SDS011;36508;52.512;13.450;2023-02-01T01:08:46;14.00;;;2.37;;
50555;SDS011;36508;52.512;13.450;2023-02-01T01:11:17;8.37;;;2.70;;
50555;SDS011;36508;52.512;13.450;2023-02-01T01:13:48;12.60;;;5.10;;
50555;SDS011;36508;52.512;13.450;2023-02-01T01:16:15;13.67;;;3.90;;
50555;SDS011;36508;52.512;13.450;2023-02-01T01:18:45;18.13;;;3.80;;
50555;SDS011;36508;52.512;13.450;2023-02-01T01:21:13;8.37;;;3.10;;
50555;SDS011;36508;52.512;13.450;2023-02-01T01:23:42;14.80;;;3.20;;
50555;SDS011;36508;52.512;13.450;2023-02-01T01:26:10;11.27;;;3.80;;
50555;SDS011;36508;52.512;13.450;2023-02-01T01:28:39;11.23;;;3.17;;
50555;SDS011;36508;52.512;13.450;2023-02-01T01:31:08;7.10;;;2.40;;
50555;SDS011;36508;52.512;13.450;2023-02-01T01:33:35;11.07;;;3.50;;
50555;SDS011;36508;52.512;13.450;2023-02-01T01:36:08;14.20;;;5.87;;
50555;SDS011;36508;52.512;13.450;2023-02-01T01:38:36;7.17;;;4.20;;
50555;SDS011;36508;52.512;13.450;2023-02-01T01:41:05;5.93;;;2.53;;
50555;SDS011;36508;52.512;13.450;2023-02-01T01:46:17;9.20;;;2.77;;
50555;SDS011;36508;52.512;13.450;2023-02-01T01:48:51;6.20;;;3.43;;
50555;SDS011;36508;52.512;13.450;2023-02-01T01:51:22;13.70;;;3.23;;
50555;SDS011;36508;52.512;13.450;2023-02-01T01:53:53;11.83;;;4.07;;
50555;SDS011;36508;52.512;13.450;2023-02-01T01:56:42;16.03;;;3.33;;
50555;SDS011;36508;52.512;13.450;2023-02-01T01:59:11;16.63;;;4.10;;
50555;SDS011;36508;52.512;13.450;2023-02-01T02:01:40;9.83;;;3.67;;
50555;SDS011;36508;52.512;13.450;2023-02-01T02:04:06;9.43;;;2.20;;
50555;SDS011;36508;52.512;13.450;2023-02-01T02:06:37;6.60;;;2.70;;
50555;SDS011;36508;52.512;13.450;2023-02-01T02:09:04;5.07;;;3.23;;
50555;SDS011;36508;52.512;13.450;2023-02-01T02:11:31;20.00;;;5.70;;
50555;SDS011;36508;52.512;13.450;2023-02-01T02:13:57;14.20;;;3.00;;
50555;SDS011;36508;52.512;13.450;2023-02-01T02:16:27;9.90;;;3.50;;
50555;SDS011;36508;52.512;13.450;2023-02-01T02:35:46;9.33;;;3.37;;
50555;SDS011;36508;52.512;13.450;2023-02-01T02:41:19;12.10;;;2.83;;
50555;SDS011;36508;52.512;13.450;2023-02-01T02:44:44;11.50;;;3.10;;
50555;SDS011;36508;52.512;13.450;2023-02-01T02:50:38;9.20;;;4.27;;
50555;SDS011;36508;52.512;13.450;2023-02-01T02:53:32;5.67;;;2.43;;
50555;SDS011;36508;52.512;13.450;2023-02-01T02:56:22;11.80;;;3.00;;
50555;SDS011;36508;52.512;13.450;2023-02-01T02:59:14;8.97;;;3.40;;
50555;SDS011;36508;52.512;13.450;2023-02-01T03:02:10;10.50;;;3.90;;
50555;SDS011;36508;52.512;13.450;2023-02-01T03:04:56;12.00;;;3.13;;
50555;SDS011;36508;52.512;13.450;2023-02-01T03:12:43;7.67;;;2.87;;
50555;SDS011;36508;52.512;13.450;2023-02-01T03:15:36;24.30;;;4.27;;
50555;SDS011;36508;52.512;13.450;2023-02-01T03:18:33;5.17;;;2.60;;
50555;SDS011;36508;52.512;13.450;2023-02-01T03:21:16;12.17;;;2.50;;
50555;SDS011;36508;52.512;13.450;2023-02-01T03:23:54;12.53;;;3.07;;
50555;SDS011;36508;52.512;13.450;2023-02-01T03:26:25;9.63;;;3.10;;
50555;SDS011;36508;52.512;13.450;2023-02-01T03:29:03;13.40;;;4.50;;
50555;SDS011;36508;52.512;13.450;2023-02-01T03:31:34;10.77;;;3.73;;
50555;SDS011;36508;52.512;13.450;2023-02-01T03:34:03;11.50;;;3.57;;
50555;SDS011;36508;52.512;13.450;2023-02-01T03:36:37;20.07;;;4.53;;
50555;SDS011;36508;52.512;13.450;2023-02-01T03:39:14;20.23;;;4.63;;
50555;SDS011;36508;52.512;13.450;2023-02-01T03:41:49;15.00;;;5.23;;
50555;SDS011;36508;52.512;13.450;2023-02-01T03:44:22;11.40;;;4.70;;
50555;SDS011;36508;52.512;13.450;2023-02-01T03:49:31;9.57;;;5.10;;
50555;SDS011;36508;52.512;13.450;2023-02-01T03:52:00;10.10;;;2.33;;
50555;SDS011;36508;52.512;13.450;2023-02-01T03:54:28;4.13;;;2.10;;
50555;SDS011;36508;52.512;13.450;2023-02-01T03:56:55;16.03;;;3.77;;
50555;SDS011;36508;52.512;13.450;2023-02-01T03:59:37;12.60;;;4.10;;
50555;SDS011;36508;52.512;13.450;2023-02-01T04:02:10;14.77;;;4.10;;
50555;SDS011;36508;52.512;13.450;2023-02-01T04:04:42;13.03;;;5.50;;
50555;SDS011;36508;52.512;13.450;2023-02-01T04:07:08;10.40;;;3.83;;
50555;SDS011;36508;52.512;13.450;2023-02-01T04:09:34;9.73;;;3.70;;
50555;SDS011;36508;52.512;13.450;2023-02-01T04:12:00;10.50;;;4.33;;
50555;SDS011;36508;52.512;13.450;2023-02-01T04:14:32;14.33;;;4.57;;
50555;SDS011;36508;52.512;13.450;2023-02-01T04:17:03;5.33;;;3.03;;
50555;SDS011;36508;52.512;13.450;2023-02-01T04:19:29;14.67;;;4.17;;
50555;SDS011;36508;52.512;13.450;2023-02-01T04:21:55;14.83;;;3.23;;
50555;SDS011;36508;52.512;13.450;2023-02-01T04:24:23;13.50;;;4.73;;
50555;SDS011;36508;52.512;13.450;2023-02-01T04:26:51;22.63;;;4.90;;
50555;SDS011;36508;52.512;13.450;2023-02-01T04:29:17;12.80;;;4.33;;
50555;SDS011;36508;52.512;13.450;2023-02-01T04:31:52;14.00;;;4.33;;
50555;SDS011;36508;52.512;13.450;2023-02-01T04:34:24;15.50;;;4.33;;
50555;SDS011;36508;52.512;13.450;2023-02-01T04:36:50;11.87;;;3.53;;
50555;SDS011;36508;52.512;13.450;2023-02-01T04:39:16;13.30;;;3.70;;
50555;SDS011;36508;52.512;13.450;2023-02-01T04:41:42;9.27;;;4.03;;
50555;SDS011;36508;52.512;13.450;2023-02-01T04:44:15;9.73;;;4.93;;
50555;SDS011;36508;52.512;13.450;2023-02-01T04:46:48;12.03;;;3.57;;
50555;SDS011;36508;52.512;13.450;2023-02-01T04:49:14;8.17;;;3.77;;
50555;SDS011;36508;52.512;13.450;2023-02-01T04:51:40;6.83;;;4.03;;
50555;SDS011;36508;52.512;13.450;2023-02-01T04:54:07;14.67;;;4.73;;
50555;SDS011;36508;52.512;13.450;2023-02-01T04:56:36;13.90;;;4.17;;
50555;SDS011;36508;52.512;13.450;2023-02-01T04:59:03;11.87;;;3.20;;
50555;SDS011;36508;52.512;13.450;2023-02-01T05:01:32;7.03;;;3.13;;
50555;SDS011;36508;52.512;13.450;2023-02-01T05:03:59;10.50;;;4.97;;
50555;SDS011;36508;52.512;13.450;2023-02-01T05:06:25;17.27;;;4.10;;
50555;SDS011;36508;52.512;13.450;2023-02-01T05:08:51;24.33;;;4.27;;
50555;SDS011;36508;52.512;13.450;2023-02-01T05:11:19;8.73;;;2.87;;
50555;SDS011;36508;52.512;13.450;2023-02-01T05:14:03;9.20;;;3.90;;
50555;SDS011;36508;52.512;13.450;2023-02-01T05:16:32;19.73;;;3.90;;
50555;SDS011;36508;52.512;13.450;2023-02-01T05:18:58;20.30;;;6.53;;
50555;SDS011;36508;52.512;13.450;2023-02-01T05:21:24;9.30;;;3.80;;
50555;SDS011;36508;52.512;13.450;2023-02-01T05:23:50;12.23;;;4.97;;
50555;SDS011;36508;52.512;13.450;2023-02-01T05:26:34;18.50;;;4.57;;
50555;SDS011;36508;52.512;13.450;2023-02-01T05:29:00;6.63;;;3.80;;
50555;SDS011;36508;52.512;13.450;2023-02-01T05:31:26;11.03;;;3.63;;
50555;SDS011;36508;52.512;13.450;2023-02-01T05:33:52;18.50;;;4.70;;
50555;SDS011;36508;52.512;13.450;2023-02-01T05:36:18;10.13;;;3.63;;
50555;SDS011;36508;52.512;13.450;2023-02-01T05:38:44;11.63;;;4.83;;
50555;SDS011;36508;52.512;13.450;2023-02-01T05:41:10;15.20;;;3.70;;
50555;SDS011;36508;52.512;13.450;2023-02-01T05:43:36;16.23;;;4.43;;
50555;SDS011;36508;52.512;13.450;2023-02-01T05:46:01;13.23;;;5.03;;
50555;SDS011;36508;52.512;13.450;2023-02-01T05:48:30;21.20;;;4.80;;
50555;SDS011;36508;52.512;13.450;2023-02-01T05:50:56;14.80;;;4.57;;
50555;SDS011;36508;52.512;13.450;2023-02-01T05:53:21;13.27;;;3.80;;
50555;SDS011;36508;52.512;13.450;2023-02-01T05:55:47;8.43;;;4.33;;
50555;SDS011;36508;52.512;13.450;2023-02-01T05:58:13;13.13;;;5.07;;
50555;SDS011;36508;52.512;13.450;2023-02-01T06:00:39;11.80;;;4.03;;
50555;SDS011;36508;52.512;13.450;2023-02-01T06:03:05;41.47;;;4.93;;
50555;SDS011;36508;52.512;13.450;2023-02-01T06:05:49;14.63;;;2.97;;
50555;SDS011;36508;52.512;13.450;2023-02-01T06:08:14;13.33;;;4.77;;
50555;SDS011;36508;52.512;13.450;2023-02-01T06:10:42;16.77;;;4.37;;
50555;SDS011;36508;52.512;13.450;2023-02-01T06:13:08;11.30;;;3.30;;
50555;SDS011;36508;52.512;13.450;2023-02-01T06:15:34;12.97;;;3.30;;
50555;SDS011;36508;52.512;13.450;2023-02-01T06:18:00;16.70;;;4.03;;
50555;SDS011;36508;52.512;13.450;2023-02-01T06:20:26;15.30;;;4.53;;
50555;SDS011;36508;52.512;13.450;2023-02-01T06:22:54;13.80;;;3.47;;
50555;SDS011;36508;52.512;13.450;2023-02-01T06:25:26;12.27;;;4.13;;
50555;SDS011;36508;52.512;13.450;2023-02-01T06:27:54;6.53;;;3.00;;
50555;SDS011;36508;52.512;13.450;2023-02-01T06:30:20;6.07;;;3.77;;
50555;SDS011;36508;52.512;13.450;2023-02-01T06:32:50;14.40;;;3.43;;
50555;SDS011;36508;52.512;13.450;2023-02-01T06:35:19;7.90;;;3.27;;
50555;SDS011;36508;52.512;13.450;2023-02-01T06:37:48;11.10;;;3.03;;
50555;SDS011;36508;52.512;13.450;2023-02-01T06:40:13;15.27;;;5.60;;
50555;SDS011;36508;52.512;13.450;2023-02-01T06:42:44;6.80;;;2.87;;
50555;SDS011;36508;52.512;13.450;2023-02-01T06:45:10;7.87;;;4.03;;
50555;SDS011;36508;52.512;13.450;2023-02-01T06:47:39;16.17;;;4.90;;
50555;SDS011;36508;52.512;13.450;2023-02-01T06:50:05;10.37;;;4.80;;
50555;SDS011;36508;52.512;13.450;2023-02-01T06:52:32;14.30;;;4.53;;
50555;SDS011;36508;52.512;13.450;2023-02-01T06:55:06;7.27;;;3.50;;
50555;SDS011;36508;52.512;13.450;2023-02-01T06:57:33;15.50;;;4.87;;
50555;SDS011;36508;52.512;13.450;2023-02-01T07:00:06;22.80;;;5.77;;
50555;SDS011;36508;52.512;13.450;2023-02-01T07:02:33;14.17;;;4.70;;
50555;SDS011;36508;52.512;13.450;2023-02-01T07:05:01;10.00;;;3.43;;
50555;SDS011;36508;52.512;13.450;2023-02-01T07:07:28;14.43;;;4.23;;
50555;SDS011;36508;52.512;13.450;2023-02-01T07:09:53;13.97;;;3.10;;
50555;SDS011;36508;52.512;13.450;2023-02-01T07:12:19;15.73;;;3.83;;
50555;SDS011;36508;52.512;13.450;2023-02-01T07:14:45;8.90;;;3.30;;
50555;SDS011;36508;52.512;13.450;2023-02-01T07:17:11;12.03;;;3.30;;
50555;SDS011;36508;52.512;13.450;2023-02-01T07:19:36;10.20;;;4.03;;
50555;SDS011;36508;52.512;13.450;2023-02-01T07:22:02;18.63;;;5.17;;
50555;SDS011;36508;52.512;13.450;2023-02-01T07:24:28;12.17;;;4.60;;
50555;SDS011;36508;52.512;13.450;2023-02-01T07:26:55;8.23;;;3.23;;
50555;SDS011;36508;52.512;13.450;2023-02-01T07:29:22;8.10;;;3.40;;
50555;SDS011;36508;52.512;13.450;2023-02-01T07:31:48;11.67;;;3.80;;
50555;SDS011;36508;52.512;13.450;2023-02-01T07:34:13;11.73;;;4.33;;
50555;SDS011;36508;52.512;13.450;2023-02-01T07:36:39;11.53;;;4.00;;
50555;SDS011;36508;52.512;13.450;2023-02-01T07:39:05;14.70;;;4.33;;
50555;SDS011;36508;52.512;13.450;2023-02-01T07:41:31;10.87;;;3.97;;
50555;SDS011;36508;52.512;13.450;2023-02-01T07:43:57;8.27;;;4.90;;
50555;SDS011;36508;52.512;13.450;2023-02-01T07:46:44;7.30;;;3.80;;
50555;SDS011;36508;52.512;13.450;2023-02-01T07:49:16;10.27;;;3.53;;
50555;SDS011;36508;52.512;13.450;2023-02-01T07:51:52;13.00;;;3.97;;
50555;SDS011;36508;52.512;13.450;2023-02-01T07:54:21;8.67;;;4.13;;
50555;SDS011;36508;52.512;13.450;2023-02-01T07:56:50;15.60;;;4.67;;
50555;SDS011;36508;52.512;13.450;2023-02-01T07:59:15;16.07;;;3.90;;
50555;SDS011;36508;52.512;13.450;2023-02-01T08:01:44;14.23;;;3.90;;
50555;SDS011;36508;52.512;13.450;2023-02-01T08:04:11;13.80;;;4.13;;
50555;SDS011;36508;52.512;13.450;2023-02-01T08:06:38;10.50;;;4.03;;
50555;SDS011;36508;52.512;13.450;2023-02-01T08:09:04;14.67;;;4.70;;
50555;SDS011;36508;52.512;13.450;2023-02-01T08:11:33;20.57;;;5.53;;
50555;SDS011;36508;52.512;13.450;2023-02-01T08:14:03;12.40;;;3.87;;
50555;SDS011;36508;52.512;13.450;2023-02-01T08:16:29;12.13;;;3.60;;
50555;SDS011;36508;52.512;13.450;2023-02-01T08:18:55;15.10;;;5.63;;
50555;SDS011;36508;52.512;13.450;2023-02-01T08:21:24;11.77;;;5.10;;
50555;SDS011;36508;52.512;13.450;2023-02-01T08:23:51;12.70;;;4.20;;
50555;SDS011;36508;52.512;13.450;2023-02-01T08:26:21;10.47;;;5.63;;
50555;SDS011;36508;52.512;13.450;2023-02-01T08:28:50;7.70;;;3.53;;
50555;SDS011;36508;52.512;13.450;2023-02-01T08:31:19;9.00;;;4.50;;
50555;SDS011;36508;52.512;13.450;2023-02-01T08:33:48;5.03;;;3.40;;
50555;SDS011;36508;52.512;13.450;2023-02-01T08:36:23;13.83;;;5.30;;
50555;SDS011;36508;52.512;13.450;2023-02-01T08:38:50;6.93;;;4.60;;
50555;SDS011;36508;52.512;13.450;2023-02-01T08:41:23;9.57;;;5.40;;
50555;SDS011;36508;52.512;13.450;2023-02-01T08:43:54;5.67;;;4.07;;
50555;SDS011;36508;52.512;13.450;2023-02-01T08:46:20;11.87;;;5.67;;
50555;SDS011;36508;52.512;13.450;2023-02-01T08:48:46;6.53;;;5.33;;
50555;SDS011;36508;52.512;13.450;2023-02-01T08:51:14;7.20;;;4.40;;
50555;SDS011;36508;52.512;13.450;2023-02-01T08:53:44;12.90;;;4.70;;
50555;SDS011;36508;52.512;13.450;2023-02-01T08:56:12;8.10;;;5.10;;
50555;SDS011;36508;52.512;13.450;2023-02-01T08:58:45;5.07;;;4.30;;
50555;SDS011;36508;52.512;13.450;2023-02-01T09:01:14;6.70;;;4.60;;
50555;SDS011;36508;52.512;13.450;2023-02-01T09:03:41;3.40;;;3.10;;
50555;SDS011;36508;52.512;13.450;2023-02-01T09:06:08;3.53;;;3.20;;
50555;SDS011;36508;52.512;13.450;2023-02-01T09:08:36;6.50;;;5.30;;
50555;SDS011;36508;52.512;13.450;2023-02-01T09:11:04;4.83;;;4.30;;
50555;SDS011;36508;52.512;13.450;2023-02-01T09:13:32;8.27;;;3.60;;
50555;SDS011;36508;52.512;13.450;2023-02-01T09:16:01;8.40;;;3.90;;
50555;SDS011;36508;52.512;13.450;2023-02-01T09:18:27;7.37;;;3.23;;
50555;SDS011;36508;52.512;13.450;2023-02-01T09:20:53;6.07;;;3.90;;
50555;SDS011;36508;52.512;13.450;2023-02-01T09:23:19;6.00;;;5.17;;
50555;SDS011;36508;52.512;13.450;2023-02-01T09:25:48;3.47;;;3.17;;
50555;SDS011;36508;52.512;13.450;2023-02-01T09:28:17;4.27;;;2.23;;
50555;SDS011;36508;52.512;13.450;2023-02-01T09:30:46;5.27;;;2.47;;
50555;SDS011;36508;52.512;13.450;2023-02-01T09:33:12;3.50;;;3.20;;
50555;SDS011;36508;52.512;13.450;2023-02-01T09:35:37;4.00;;;3.33;;
50555;SDS011;36508;52.512;13.450;2023-02-01T09:38:09;2.17;;;2.00;;
50555;SDS011;36508;52.512;13.450;2023-02-01T09:40:35;2.97;;;2.17;;
50555;SDS011;36508;52.512;13.450;2023-02-01T09:48:24;5.47;;;2.03;;
50555;SDS011;36508;52.512;13.450;2023-02-01T09:50:57;2.40;;;1.63;;
50555;SDS011;36508;52.512;13.450;2023-02-01T09:53:33;3.53;;;1.93;;
50555;SDS011;36508;52.512;13.450;2023-02-01T09:56:12;4.40;;;1.63;;
50555;SDS011;36508;52.512;13.450;2023-02-01T10:01:22;3.10;;;1.20;;
50555;SDS011;36508;52.512;13.450;2023-02-01T10:03:50;2.90;;;1.70;;
50555;SDS011;36508;52.512;13.450;2023-02-01T10:12:31;1.30;;;1.20;;
50555;SDS011;36508;52.512;13.450;2023-02-01T10:15:30;1.17;;;1.00;;
50555;SDS011;36508;52.512;13.450;2023-02-01T10:26:45;2.40;;;1.40;;
50555;SDS011;36508;52.512;13.450;2023-02-01T10:29:22;4.77;;;1.87;;
50555;SDS011;36508;52.512;13.450;2023-02-01T10:31:55;4.13;;;1.60;;
50555;SDS011;36508;52.512;13.450;2023-02-01T10:34:22;2.20;;;1.77;;
50555;SDS011;36508;52.512;13.450;2023-02-01T10:37:02;3.83;;;1.50;;
50555;SDS011;36508;52.512;13.450;2023-02-01T10:39:36;2.17;;;2.00;;
50555;SDS011;36508;52.512;13.450;2023-02-01T10:42:02;3.03;;;1.50;;
50555;SDS011;36508;52.512;13.450;2023-02-01T10:44:28;3.83;;;1.73;;
50555;SDS011;36508;52.512;13.450;2023-02-01T10:46:56;3.70;;;2.20;;
50555;SDS011;36508;52.512;13.450;2023-02-01T10:49:36;5.70;;;1.40;;
50555;SDS011;36508;52.512;13.450;2023-02-01T10:52:31;14.80;;;1.93;;
50555;SDS011;36508;52.512;13.450;2023-02-01T10:57:58;8.47;;;2.43;;
50555;SDS011;36508;52.512;13.450;2023-02-01T11:00:26;7.37;;;1.33;;
50555;SDS011;36508;52.512;13.450;2023-02-01T11:02:53;1.70;;;1.60;;
50555;SDS011;36508;52.512;13.450;2023-02-01T11:05:21;1.40;;;1.10;;
50555;SDS011;36508;52.512;13.450;2023-02-01T11:07:51;4.80;;;1.77;;
50555;SDS011;36508;52.512;13.450;2023-02-01T11:10:38;6.90;;;2.20;;
50555;SDS011;36508;52.512;13.450;2023-02-01T11:13:14;3.23;;;1.90;;
50555;SDS011;36508;52.512;13.450;2023-02-01T11:15:43;2.50;;;2.20;;
50555;SDS011;36508;52.512;13.450;2023-02-01T11:18:15;4.00;;;1.90;;
50555;SDS011;36508;52.512;13.450;2023-02-01T11:20:49;8.67;;;2.80;;
50555;SDS011;36508;52.512;13.450;2023-02-01T11:23:21;5.70;;;2.80;;
50555;SDS011;36508;52.512;13.450;2023-02-01T11:28:20;4.23;;;2.17;;
50555;SDS011;36508;52.512;13.450;2023-02-01T11:30:55;5.03;;;1.83;;
50555;SDS011;36508;52.512;13.450;2023-02-01T11:33:25;5.93;;;2.00;;
50555;SDS011;36508;52.512;13.450;2023-02-01T11:36:06;10.90;;;2.67;;
50555;SDS011;36508;52.512;13.450;2023-02-01T11:38:38;4.53;;;1.73;;
50555;SDS011;36508;52.512;13.450;2023-02-01T11:41:11;7.53;;;3.30;;
50555;SDS011;36508;52.512;13.450;2023-02-01T11:43:55;4.33;;;1.63;;
50555;SDS011;36508;52.512;13.450;2023-02-01T11:46:33;6.13;;;2.40;;
50555;SDS011;36508;52.512;13.450;2023-02-01T11:52:00;5.73;;;2.10;;
50555;SDS011;36508;52.512;13.450;2023-02-01T12:10:40;10.53;;;3.47;;
50555;SDS011;36508;52.512;13.450;2023-02-01T12:16:02;4.73;;;2.10;;
50555;SDS011;36508;52.512;13.450;2023-02-01T12:21:41;8.60;;;2.80;;
50555;SDS011;36508;52.512;13.450;2023-02-01T12:32:49;3.43;;;2.50;;
50555;SDS011;36508;52.512;13.450;2023-02-01T12:41:24;6.83;;;2.10;;
50555;SDS011;36508;52.512;13.450;2023-02-01T12:49:46;4.40;;;3.23;;
50555;SDS011;36508;52.512;13.450;2023-02-01T12:55:23;5.67;;;1.70;;
50555;SDS011;36508;52.512;13.450;2023-02-01T13:01:02;7.23;;;2.50;;
50555;SDS011;36508;52.512;13.450;2023-02-01T13:06:23;9.50;;;2.97;;
50555;SDS011;36508;52.512;13.450;2023-02-01T13:09:03;7.50;;;2.50;;
50555;SDS011;36508;52.512;13.450;2023-02-01T13:11:46;2.43;;;1.73;;
50555;SDS011;36508;52.512;13.450;2023-02-01T13:17:14;2.20;;;1.93;;
50555;SDS011;36508;52.512;13.450;2023-02-01T13:22:49;3.10;;;2.30;;
50555;SDS011;36508;52.512;13.450;2023-02-01T13:28:06;6.40;;;3.30;;
50555;SDS011;36508;52.512;13.450;2023-02-01T13:30:41;7.43;;;2.67;;
50555;SDS011;36508;52.512;13.450;2023-02-01T13:41:30;6.33;;;2.90;;
50555;SDS011;36508;52.512;13.450;2023-02-01T13:44:11;7.10;;;2.77;;
50555;SDS011;36508;52.512;13.450;2023-02-01T13:46:40;6.00;;;2.27;;
50555;SDS011;36508;52.512;13.450;2023-02-01T13:49:18;7.20;;;2.70;;
50555;SDS011;36508;52.512;13.450;2023-02-01T13:51:48;12.60;;;2.73;;
50555;SDS011;36508;52.512;13.450;2023-02-01T13:54:25;4.40;;;1.53;;
50555;SDS011;36508;52.512;13.450;2023-02-01T13:57:01;8.13;;;2.70;;
50555;SDS011;36508;52.512;13.450;2023-02-01T14:05:08;8.00;;;2.33;;
50555;SDS011;36508;52.512;13.450;2023-02-01T14:07:36;16.50;;;5.50;;
50555;SDS011;36508;52.512;13.450;2023-02-01T14:13:25;7.37;;;3.17;;
50555;SDS011;36508;52.512;13.450;2023-02-01T14:23:56;5.93;;;3.30;;
50555;SDS011;36508;52.512;13.450;2023-02-01T14:26:49;7.57;;;2.40;;
50555;SDS011;36508;52.512;13.450;2023-02-01T14:29:30;7.50;;;3.17;;
50555;SDS011;36508;52.512;13.450;2023-02-01T14:42:19;6.50;;;3.40;;
50555;SDS011;36508;52.512;13.450;2023-02-01T14:47:50;6.90;;;3.73;;
50555;SDS011;36508;52.512;13.450;2023-02-01T14:55:38;6.07;;;3.67;;
50555;SDS011;36508;52.512;13.450;2023-02-01T15:04:16;13.40;;;3.63;;
50555;SDS011;36508;52.512;13.450;2023-02-01T15:06:54;2.60;;;2.23;;
50555;SDS011;36508;52.512;13.450;2023-02-01T15:14:42;6.90;;;3.10;;
50555;SDS011;36508;52.512;13.450;2023-02-01T15:17:23;3.90;;;2.80;;
50555;SDS011;36508;52.512;13.450;2023-02-01T15:22:21;4.60;;;2.10;;
50555;SDS011;36508;52.512;13.450;2023-02-01T15:24:57;2.27;;;2.07;;
50555;SDS011;36508;52.512;13.450;2023-02-01T15:27:25;3.67;;;2.40;;
50555;SDS011;36508;52.512;13.450;2023-02-01T15:29:53;4.70;;;2.00;;
50555;SDS011;36508;52.512;13.450;2023-02-01T15:32:33;4.97;;;1.90;;
50555;SDS011;36508;52.512;13.450;2023-02-01T15:35:04;1.37;;;1.27;;
50555;SDS011;36508;52.512;13.450;2023-02-01T15:37:30;2.00;;;1.77;;
50555;SDS011;36508;52.512;13.450;2023-02-01T15:40:05;1.73;;;1.63;;
50555;SDS011;36508;52.512;13.450;2023-02-01T15:42:47;1.83;;;1.73;;
50555;SDS011;36508;52.512;13.450;2023-02-01T15:45:18;2.37;;;1.97;;
50555;SDS011;36508;52.512;13.450;2023-02-01T15:47:49;1.10;;;1.10;;
50555;SDS011;36508;52.512;13.450;2023-02-01T15:50:18;1.43;;;1.30;;
50555;SDS011;36508;52.512;13.450;2023-02-01T15:52:46;2.93;;;1.70;;
50555;SDS011;36508;52.512;13.450;2023-02-01T15:58:17;1.77;;;1.20;;
50555;SDS011;36508;52.512;13.450;2023-02-01T16:00:46;2.20;;;2.07;;
50555;SDS011;36508;52.512;13.450;2023-02-01T16:06:28;2.43;;;1.20;;
50555;SDS011;36508;52.512;13.450;2023-02-01T16:11:26;1.57;;;0.93;;
50555;SDS011;36508;52.512;13.450;2023-02-01T16:13:55;1.00;;;0.77;;
50555;SDS011;36508;52.512;13.450;2023-02-01T16:16:27;0.97;;;0.97;;
50555;SDS011;36508;52.512;13.450;2023-02-01T16:18:53;1.33;;;1.23;;
50555;SDS011;36508;52.512;13.450;2023-02-01T16:21:19;1.10;;;1.00;;
50555;SDS011;36508;52.512;13.450;2023-02-01T16:23:51;0.60;;;0.60;;
50555;SDS011;36508;52.512;13.450;2023-02-01T16:26:18;0.63;;;0.63;;
50555;SDS011;36508;52.512;13.450;2023-02-01T16:28:45;0.70;;;0.70;;
50555;SDS011;36508;52.512;13.450;2023-02-01T16:31:15;4.10;;;0.70;;
50555;SDS011;36508;52.512;13.450;2023-02-01T16:33:46;1.03;;;0.90;;
50555;SDS011;36508;52.512;13.450;2023-02-01T16:36:23;1.60;;;1.50;;
50555;SDS011;36508;52.512;13.450;2023-02-01T16:38:52;2.20;;;1.00;;
50555;SDS011;36508;52.512;13.450;2023-02-01T16:41:21;1.80;;;1.50;;
50555;SDS011;36508;52.512;13.450;2023-02-01T16:43:52;0.83;;;0.83;;
50555;SDS011;36508;52.512;13.450;2023-02-01T16:46:19;0.90;;;0.87;;
50555;SDS011;36508;52.512;13.450;2023-02-01T16:48:58;1.27;;;1.07;;
50555;SDS011;36508;52.512;13.450;2023-02-01T16:51:26;0.90;;;0.80;;
50555;SDS011;36508;52.512;13.450;2023-02-01T16:53:57;0.80;;;0.80;;
50555;SDS011;36508;52.512;13.450;2023-02-01T16:56:30;1.13;;;1.10;;
50555;SDS011;36508;52.512;13.450;2023-02-01T16:58:58;2.03;;;1.10;;
50555;SDS011;36508;52.512;13.450;2023-02-01T17:01:24;1.10;;;1.00;;
50555;SDS011;36508;52.512;13.450;2023-02-01T17:03:51;2.10;;;2.00;;
50555;SDS011;36508;52.512;13.450;2023-02-01T17:06:18;2.17;;;1.90;;
50555;SDS011;36508;52.512;13.450;2023-02-01T17:08:55;1.47;;;1.20;;
50555;SDS011;36508;52.512;13.450;2023-02-01T17:11:27;5.63;;;1.30;;
50555;SDS011;36508;52.512;13.450;2023-02-01T17:13:56;1.13;;;1.13;;
50555;SDS011;36508;52.512;13.450;2023-02-01T17:16:27;1.70;;;1.50;;
50555;SDS011;36508;52.512;13.450;2023-02-01T17:19:05;1.67;;;1.57;;
50555;SDS011;36508;52.512;13.450;2023-02-01T17:21:42;1.40;;;1.30;;
50555;SDS011;36508;52.512;13.450;2023-02-01T17:24:18;1.93;;;1.83;;
50555;SDS011;36508;52.512;13.450;2023-02-01T17:26:49;2.20;;;2.00;;
50555;SDS011;36508;52.512;13.450;2023-02-01T17:29:21;2.10;;;2.00;;
50555;SDS011;36508;52.512;13.450;2023-02-01T17:31:47;3.70;;;3.50;;
50555;SDS011;36508;52.512;13.450;2023-02-01T17:34:15;4.50;;;1.57;;
50555;SDS011;36508;52.512;13.450;2023-02-01T17:36:43;5.43;;;1.60;;
50555;SDS011;36508;52.512;13.450;2023-02-01T17:39:14;1.97;;;1.77;;
50555;SDS011;36508;52.512;13.450;2023-02-01T17:42:00;2.53;;;2.33;;
50555;SDS011;36508;52.512;13.450;2023-02-01T17:44:29;4.40;;;1.60;;
50555;SDS011;36508;52.512;13.450;2023-02-01T17:47:06;6.40;;;2.80;;
50555;SDS011;36508;52.512;13.450;2023-02-01T17:49:33;2.10;;;2.00;;
50555;SDS011;36508;52.512;13.450;2023-02-01T17:52:03;5.30;;;3.93;;
50555;SDS011;36508;52.512;13.450;2023-02-01T17:54:38;3.33;;;2.83;;
50555;SDS011;36508;52.512;13.450;2023-02-01T17:57:11;5.00;;;1.77;;
50555;SDS011;36508;52.512;13.450;2023-02-01T17:59:40;2.33;;;1.80;;
50555;SDS011;36508;52.512;13.450;2023-02-01T18:02:16;2.17;;;1.97;;
50555;SDS011;36508;52.512;13.450;2023-02-01T18:04:52;5.17;;;2.40;;
50555;SDS011;36508;52.512;13.450;2023-02-01T18:07:17;2.97;;;2.20;;